createdAt,value
2022-11-17T00:01:45.751Z,100011.94
2022-11-17T00:04:31.258Z,100013.44
2022-11-17T00:07:17.033Z,100003.09
2022-11-17T00:10:02.711Z,99998.00
2022-11-17T00:13:06.943Z,100017.13
2022-11-17T00:15:52.685Z,100011.16
2022-11-17T00:18:57.339Z,100008.44
2022-11-17T00:21:42.919Z,99999.88
2022-11-17T00:24:28.525Z,99971.44
2022-11-17T00:27:14.301Z,100007.63
2022-11-17T00:30:00.337Z,100002.09
2022-11-17T00:33:04.677Z,99993.84
2022-11-17T00:35:52.350Z,99993.03
2022-11-17T00:38:37.945Z,99980.81
2022-11-17T00:41:23.722Z,99986.56
2022-11-17T00:44:09.991Z,99964.75
2022-11-17T00:46:55.540Z,99975.38
2022-11-17T00:49:41.380Z,99987.59
2022-11-17T00:52:26.920Z,99962.41
2022-11-17T00:55:12.710Z,99970.03
2022-11-17T00:57:58.298Z,99960.72
2022-11-17T01:00:45.393Z,99952.25
2022-11-17T01:03:31.297Z,99987.97
2022-11-17T01:06:19.361Z,99990.31
2022-11-17T01:09:09.899Z,99972.41
2022-11-17T01:11:55.942Z,99977.81
2022-11-17T01:14:41.769Z,99972.09
2022-11-17T01:17:27.384Z,99966.09
2022-11-17T01:20:12.834Z,99978.06
2022-11-17T01:22:58.435Z,99953.09
2022-11-17T01:25:44.174Z,99951.59
2022-11-17T01:28:29.703Z,99953.88
2022-11-17T01:31:18.170Z,99917.03
2022-11-17T01:34:04.455Z,99945.91
2022-11-17T01:37:08.701Z,99934.34
2022-11-17T01:39:54.254Z,99933.25
2022-11-17T01:42:40.039Z,99913.44
2022-11-17T01:45:26.904Z,99929.84
2022-11-17T01:48:15.437Z,99940.81
2022-11-17T01:51:01.001Z,99926.38
2022-11-17T01:53:50.411Z,99900.69
2022-11-17T01:56:41.786Z,99900.28
2022-11-17T01:59:35.229Z,99934.47
2022-11-17T02:02:21.549Z,99902.19
2022-11-17T02:05:18.593Z,99908.50
2022-11-17T02:08:06.952Z,99891.09
2022-11-17T02:10:53.598Z,99911.63
2022-11-17T02:13:40.888Z,99887.81
2022-11-17T02:16:26.699Z,99894.56
2022-11-17T02:19:15.708Z,99900.31
2022-11-17T02:22:38.400Z,99877.91
2022-11-17T02:25:44.670Z,99881.13
2022-11-17T02:28:37.587Z,99850.06
2022-11-17T02:31:30.776Z,99853.59
2022-11-17T02:34:27.028Z,99868.25
2022-11-17T02:37:23.905Z,99895.69
2022-11-17T02:40:16.474Z,99882.47
2022-11-17T02:43:26.318Z,99894.72
2022-11-17T02:46:15.465Z,99881.22
2022-11-17T02:49:07.419Z,99878.38
2022-11-17T02:51:56.397Z,99861.53
2022-11-17T02:54:42.124Z,99857.03
2022-11-17T02:57:32.929Z,99879.22
2022-11-17T03:00:20.274Z,99829.47
2022-11-17T03:03:05.732Z,99858.69
2022-11-17T03:06:35.961Z,99840.66
2022-11-17T03:09:39.968Z,99870.00
2022-11-17T03:12:41.877Z,99860.50
2022-11-17T03:15:41.709Z,99852.06
2022-11-17T03:18:46.688Z,99837.06
2022-11-17T03:22:06.145Z,99830.41
2022-11-17T03:24:57.255Z,99842.69
2022-11-17T03:27:47.353Z,99838.56
2022-11-17T03:30:37.591Z,99835.97
2022-11-17T03:33:25.707Z,99802.41
2022-11-17T03:36:20.112Z,99785.75
2022-11-17T03:39:08.603Z,99812.53
2022-11-17T03:42:00.307Z,99763.75
2022-11-17T03:44:53.848Z,99806.69
2022-11-17T03:47:40.374Z,99795.88
2022-11-17T03:50:51.284Z,99805.34
2022-11-17T03:53:38.211Z,99809.53
2022-11-17T03:56:54.135Z,99816.34
2022-11-17T04:00:04.478Z,99794.19
2022-11-17T04:02:55.694Z,99765.47
2022-11-17T04:05:41.253Z,99795.03
2022-11-17T04:08:30.897Z,99792.38
2022-11-17T04:11:35.026Z,99779.59
2022-11-17T04:14:39.546Z,99777.19
2022-11-17T04:17:25.065Z,99796.44
2022-11-17T04:20:10.737Z,99786.34
2022-11-17T04:23:08.306Z,99791.28
2022-11-17T04:26:14.880Z,99765.09
2022-11-17T04:29:00.492Z,99760.63
2022-11-17T04:31:46.333Z,99735.59
2022-11-17T04:34:34.225Z,99783.31
2022-11-17T04:37:19.900Z,99732.03
2022-11-17T04:40:06.197Z,99707.34
2022-11-17T04:42:52.998Z,99764.69
2022-11-17T04:45:38.777Z,99770.91
2022-11-17T04:48:24.512Z,99769.72
2022-11-17T04:51:10.315Z,99767.09
2022-11-17T04:53:56.631Z,99754.47
2022-11-17T04:56:43.615Z,99755.44
2022-11-17T04:59:29.592Z,99729.25
2022-11-17T05:02:15.360Z,99769.34
2022-11-17T05:05:01.673Z,99770.75
2022-11-17T05:07:47.533Z,99714.34
2022-11-17T05:10:51.345Z,99754.84
2022-11-17T05:13:37.759Z,99737.88
2022-11-17T05:16:42.678Z,99740.41
2022-11-17T05:19:30.247Z,99738.97
2022-11-17T05:22:38.048Z,99752.97
2022-11-17T05:25:23.722Z,99729.63
2022-11-17T05:28:09.392Z,99728.66
2022-11-17T05:30:55.083Z,99715.06
2022-11-17T05:33:41.864Z,99706.81
2022-11-17T05:36:28.245Z,99753.94
2022-11-17T05:39:14.324Z,99696.59
2022-11-17T05:42:00.499Z,99691.25
2022-11-17T05:44:48.101Z,99730.22
2022-11-17T05:47:33.927Z,99668.63
2022-11-17T05:50:19.698Z,99716.16
2022-11-17T05:53:05.851Z,99676.25
2022-11-17T05:55:51.871Z,99736.72
2022-11-17T05:58:40.252Z,99706.81
2022-11-17T06:01:27.385Z,99714.47
2022-11-17T06:04:18.068Z,99733.88
2022-11-17T06:07:03.952Z,99695.22
2022-11-17T06:09:51.297Z,99736.94
2022-11-17T06:12:37.116Z,99677.19
2022-11-17T06:15:22.904Z,99693.63
2022-11-17T06:18:16.743Z,99664.00
2022-11-17T06:21:02.816Z,99694.50
2022-11-17T06:23:49.313Z,99712.72
2022-11-17T06:26:35.545Z,99717.91
2022-11-17T06:29:21.273Z,99717.13
2022-11-17T06:32:07.139Z,99670.75
2022-11-17T06:34:55.976Z,99702.09
2022-11-17T06:37:42.874Z,99712.84
2022-11-17T06:40:29.369Z,99683.25
2022-11-17T06:43:15.276Z,99724.84
2022-11-17T06:46:05.636Z,99694.31
2022-11-17T06:48:54.489Z,99704.44
2022-11-17T06:51:44.956Z,99702.19
2022-11-17T06:54:31.088Z,99669.03
2022-11-17T06:57:16.531Z,99705.88
2022-11-17T07:00:02.540Z,99694.66
2022-11-17T07:02:48.297Z,99631.38
2022-11-17T07:05:40.127Z,99667.22
2022-11-17T07:08:26.598Z,99713.88
2022-11-17T07:11:16.579Z,99680.78
2022-11-17T07:14:02.948Z,99681.25
2022-11-17T07:16:48.295Z,99703.50
2022-11-17T07:19:34.118Z,99704.06
2022-11-17T07:22:19.674Z,99694.72
2022-11-17T07:25:05.863Z,99704.91
2022-11-17T07:27:58.265Z,99699.00
2022-11-17T07:30:46.551Z,99712.53
2022-11-17T07:33:47.520Z,99670.25
2022-11-17T07:36:33.316Z,99713.50
2022-11-17T07:39:21.649Z,99713.25
2022-11-17T07:42:07.709Z,99697.03
2022-11-17T07:50:06.245Z,99639.53
2022-11-17T07:52:53.487Z,99673.22
2022-11-17T07:55:39.291Z,99704.53
2022-11-17T07:58:25.592Z,99707.81
2022-11-17T08:01:15.586Z,99708.44
2022-11-17T08:04:01.633Z,99703.22
2022-11-17T08:06:47.294Z,99706.22
2022-11-17T08:09:32.975Z,99691.44
2022-11-17T08:12:18.583Z,99687.16
2022-11-17T08:15:04.204Z,99708.19
2022-11-17T08:17:54.652Z,99687.31
2022-11-17T08:20:40.381Z,99670.16
2022-11-17T08:23:26.020Z,99680.94
2022-11-17T08:26:11.751Z,99672.75
2022-11-17T08:28:59.136Z,99668.19
2022-11-17T08:31:46.248Z,99678.66
2022-11-17T08:34:33.280Z,99672.03
2022-11-17T08:37:19.026Z,99673.28
2022-11-17T08:40:04.774Z,99670.00
2022-11-17T08:43:00.367Z,99632.75
2022-11-17T08:45:46.966Z,99650.53
2022-11-17T08:48:33.112Z,99648.19
2022-11-17T08:51:18.732Z,99640.16
2022-11-17T08:54:04.265Z,99628.72
2022-11-17T08:56:49.790Z,99629.75
2022-11-17T08:59:35.525Z,99655.28
2022-11-17T09:02:20.961Z,99625.22
2022-11-17T09:05:07.340Z,99643.75
2022-11-17T09:07:53.628Z,99611.97
2022-11-17T09:10:39.226Z,99637.78
2022-11-17T09:13:25.157Z,99612.50
2022-11-17T09:16:11.857Z,99600.31
2022-11-17T09:18:58.466Z,99581.94
2022-11-17T09:22:07.702Z,99629.22
2022-11-17T09:24:53.825Z,99627.81
2022-11-17T09:27:39.657Z,99623.47
2022-11-17T09:30:28.434Z,99623.66
2022-11-17T09:33:14.013Z,99637.09
2022-11-17T09:35:59.606Z,99644.63
2022-11-17T09:38:46.769Z,99658.25
2022-11-17T09:41:49.753Z,99679.81
2022-11-17T09:44:42.200Z,99661.09
2022-11-17T09:48:07.271Z,99651.44
2022-11-17T09:51:06.143Z,99633.72
2022-11-17T09:54:03.522Z,99600.66
2022-11-17T09:56:50.763Z,99626.88
2022-11-17T09:59:37.057Z,99583.94
2022-11-17T10:02:22.637Z,99559.09
2022-11-17T10:05:15.418Z,99582.50
2022-11-17T10:08:07.237Z,99624.81
2022-11-17T10:10:53.040Z,99604.72
2022-11-17T10:13:38.996Z,99601.13
2022-11-17T10:16:24.772Z,99604.31
2022-11-17T10:19:29.790Z,99629.22
2022-11-17T10:22:34.932Z,99621.78
2022-11-17T10:25:38.772Z,99613.09
2022-11-17T10:28:32.797Z,99600.91
2022-11-17T10:31:19.581Z,99613.91
2022-11-17T10:34:05.203Z,99593.97
2022-11-17T10:36:50.632Z,99621.78
2022-11-17T10:39:41.733Z,99580.94
2022-11-17T10:42:27.937Z,99581.97
2022-11-17T10:45:17.995Z,99591.44
2022-11-17T10:48:23.273Z,99594.38
2022-11-17T10:51:19.550Z,99600.66
2022-11-17T10:54:16.767Z,99598.13
2022-11-17T10:57:07.131Z,99566.00
2022-11-17T10:59:57.786Z,99589.91
2022-11-17T11:02:43.579Z,99575.28
2022-11-17T11:05:29.049Z,99584.00
2022-11-17T11:08:23.645Z,99582.09
2022-11-17T11:11:19.922Z,99579.34
2022-11-17T11:14:19.923Z,99580.47
2022-11-17T11:17:13.471Z,99574.44
2022-11-17T11:20:01.180Z,99548.47
2022-11-17T11:23:02.573Z,99582.97
2022-11-17T11:25:52.861Z,99563.34
2022-11-17T11:29:12.572Z,99566.88
2022-11-17T11:32:36.929Z,99560.94
2022-11-17T11:35:42.178Z,99556.91
2022-11-17T11:38:38.196Z,99548.19
2022-11-17T11:41:38.525Z,99544.97
2022-11-17T11:44:32.724Z,99542.38
2022-11-17T11:47:32.131Z,99547.38
2022-11-17T11:50:37.630Z,99530.28
2022-11-17T11:53:52.228Z,99549.13
2022-11-17T11:56:40.522Z,99550.84
2022-11-17T11:59:41.930Z,99544.97
2022-11-17T12:02:42.307Z,99547.22
2022-11-17T12:05:59.573Z,99528.91
2022-11-17T12:09:17.531Z,99531.28
2022-11-17T12:12:13.331Z,99543.00
2022-11-17T12:15:19.177Z,99544.19
2022-11-17T12:18:06.166Z,99525.59
2022-11-17T12:20:55.287Z,99541.31
2022-11-17T12:23:59.937Z,99530.91
2022-11-17T12:26:45.679Z,99535.81
2022-11-17T12:29:31.818Z,99521.34
2022-11-17T12:32:49.227Z,99534.34
2022-11-17T12:35:36.694Z,99538.22
2022-11-17T12:38:22.411Z,99533.16
2022-11-17T12:41:08.315Z,99536.09
2022-11-17T12:44:28.166Z,99542.31
2022-11-17T12:47:14.065Z,99545.50
2022-11-17T12:50:11.962Z,99553.53
2022-11-17T12:53:09.387Z,99548.47
2022-11-17T12:56:18.246Z,99544.47
2022-11-17T12:59:24.518Z,99546.47
2022-11-17T13:02:27.091Z,99537.97
2022-11-17T13:05:18.820Z,99556.75
2022-11-17T13:08:16.199Z,99548.94
2022-11-17T13:11:11.528Z,99551.56
2022-11-17T13:14:17.139Z,99546.13
2022-11-17T13:17:03.245Z,99537.72
2022-11-17T13:19:58.375Z,99544.53
2022-11-17T13:22:58.738Z,99551.31
2022-11-17T13:25:46.247Z,99541.72
2022-11-17T13:28:32.691Z,99529.66
2022-11-17T13:31:20.244Z,99556.59
2022-11-17T13:34:14.232Z,99517.81
2022-11-17T13:37:01.175Z,99512.47
2022-11-17T14:00:01.171Z,99517.31
2022-11-17T14:02:58.925Z,99543.25
2022-11-17T14:05:57.176Z,99506.94
2022-11-17T14:09:01.254Z,99494.81
2022-11-17T14:11:47.410Z,99514.31
2022-11-17T14:14:38.878Z,99551.41
2022-11-17T14:17:24.704Z,99501.66
2022-11-17T14:20:31.075Z,99531.25
2022-11-17T14:23:18.470Z,99533.25
2022-11-17T14:26:04.385Z,99545.97
2022-11-17T14:28:51.176Z,99546.75
2022-11-17T14:31:37.115Z,99558.59
2022-11-17T14:34:23.469Z,99530.56
2022-11-17T14:37:10.474Z,99507.13
2022-11-17T14:40:09.167Z,99528.91
2022-11-17T14:42:54.580Z,99570.50
2022-11-17T14:45:40.529Z,99531.66
2022-11-17T14:48:26.511Z,99545.44
2022-11-17T14:51:12.215Z,99530.22
2022-11-17T14:53:58.081Z,99536.84
2022-11-17T14:56:43.816Z,99536.50
2022-11-17T15:00:14.567Z,99544.28
2022-11-17T15:12:39.432Z,99524.59
2022-11-17T15:15:25.354Z,99522.44
2022-11-17T15:18:27.254Z,99523.66
2022-11-17T15:21:16.643Z,99546.13
2022-11-17T15:24:04.078Z,99558.34
2022-11-17T15:26:49.609Z,99535.41
2022-11-17T15:29:35.356Z,99590.16
2022-11-17T15:32:21.008Z,99555.13
2022-11-17T15:35:06.938Z,99541.19
2022-11-17T15:37:52.615Z,99592.38
2022-11-17T15:40:38.185Z,99602.50
2022-11-17T15:43:31.796Z,99596.47
2022-11-17T15:46:18.770Z,99588.88
2022-11-17T15:49:04.458Z,99541.78
2022-11-17T15:51:49.825Z,99549.25
2022-11-17T15:54:35.539Z,99603.06
2022-11-17T15:57:21.118Z,99596.41
2022-11-17T16:00:07.446Z,99603.34
2022-11-17T16:02:58.339Z,99603.06
2022-11-17T16:05:45.246Z,99611.72
2022-11-17T16:08:31.812Z,99606.91
2022-11-17T16:11:17.680Z,99614.69
